De Peyster, New York
Current Conditions -  °F | °C
As of 2:58 AM on Wednesday 26 Nov 2014 (Local Time) from KGTB Reporting Station
Clear Clear  
Wind Chill: 27°   Ceiling: Unl
Heat Index: 31°   Visibility: 10mi
Dew Point: 24°   Wind: 5mph
Humidity: 76%   Direction: 260°W
Pressure: 30.2"   Gusts: NA
Location:  44.55°N, 75.43°W
Report Text: KGTB 260758Z AUTO 26004KT 10SM CLR 00/M04 A3020 RMK AO2 SLP234 T10041042
Loading
Personal Weather Stations






























Interactive Weather Map New forecast layout! Learn more

10-Day Weather Forecast

Advertisements
Track Severe Weather on mobile